createdAt,value
2023-06-30T00:00:36.640Z,91.78
2023-06-30T00:01:36.659Z,91.89
2023-06-30T00:02:36.648Z,91.89
2023-06-30T00:03:36.757Z,91.69
2023-06-30T00:04:36.609Z,91.58
2023-06-30T00:05:36.559Z,91.73
2023-06-30T00:06:36.565Z,91.83
2023-06-30T00:07:36.611Z,91.83
2023-06-30T00:08:36.538Z,91.93
2023-06-30T00:09:36.520Z,91.93
2023-06-30T00:10:36.499Z,92.18
2023-06-30T00:11:36.495Z,92.68
2023-06-30T00:12:36.488Z,92.78
2023-06-30T00:13:36.468Z,92.68
2023-06-30T00:14:36.449Z,92.88
2023-06-30T00:15:36.478Z,92.68
2023-06-30T00:16:36.469Z,92.78
2023-06-30T00:17:36.466Z,92.68
2023-06-30T00:18:36.410Z,92.68
2023-06-30T00:19:36.401Z,92.98
2023-06-30T00:20:36.385Z,92.88
2023-06-30T00:21:36.378Z,93.08
2023-06-30T00:22:36.371Z,92.98
2023-06-30T00:23:36.384Z,93.18
2023-06-30T00:24:36.349Z,93.18
2023-06-30T00:25:36.333Z,93.38
2023-06-30T00:26:36.322Z,93.29
2023-06-30T00:27:36.322Z,93.38
2023-06-30T00:28:36.321Z,93.38
2023-06-30T00:29:36.329Z,93.29
2023-06-30T00:30:36.270Z,93.38
2023-06-30T00:31:36.343Z,93.59
2023-06-30T00:32:36.275Z,93.38
2023-06-30T00:33:36.239Z,93.59
2023-06-30T00:34:36.226Z,93.49
2023-06-30T00:35:36.219Z,93.69
2023-06-30T00:36:36.215Z,93.69
2023-06-30T00:37:36.200Z,93.89
2023-06-30T00:38:36.225Z,93.93
2023-06-30T00:39:36.176Z,94.04
2023-06-30T00:40:36.169Z,94.04
2023-06-30T00:41:36.168Z,94.13
2023-06-30T00:42:36.135Z,94.04
2023-06-30T00:43:36.128Z,94.13
2023-06-30T00:44:36.116Z,94.34
2023-06-30T00:45:36.119Z,94.13
2023-06-30T00:46:36.122Z,94.24
2023-06-30T00:47:36.091Z,94.44
2023-06-30T00:48:36.067Z,94.34
2023-06-30T00:49:36.061Z,94.34
2023-06-30T00:50:36.056Z,94.44
2023-06-30T00:51:36.045Z,94.34
2023-06-30T00:52:36.022Z,94.44
2023-06-30T00:53:36.016Z,94.44
2023-06-30T00:54:36.010Z,94.74
2023-06-30T00:55:36.002Z,94.84
2023-06-30T00:56:36.016Z,94.74
2023-06-30T00:57:35.972Z,94.84
2023-06-30T00:58:35.962Z,94.84
2023-06-30T00:59:35.976Z,94.54
2023-06-30T01:00:35.963Z,94.54
2023-06-30T01:01:35.958Z,94.64
2023-06-30T01:02:35.935Z,94.64
2023-06-30T01:03:35.995Z,94.64
2023-06-30T01:04:35.931Z,94.74
2023-06-30T01:05:35.888Z,94.84
2023-06-30T01:06:35.865Z,94.64
2023-06-30T01:07:35.885Z,94.64
2023-06-30T01:08:35.868Z,94.74
2023-06-30T01:09:35.859Z,94.54
2023-06-30T01:10:35.822Z,94.64
2023-06-30T01:11:35.816Z,94.44
2023-06-30T01:12:35.812Z,94.54
2023-06-30T01:13:35.807Z,94.54
2023-06-30T01:14:35.784Z,94.54
2023-06-30T01:15:35.792Z,94.13
2023-06-30T01:16:35.783Z,94.04
2023-06-30T01:17:35.774Z,93.93
2023-06-30T01:18:35.755Z,93.93
2023-06-30T01:19:35.730Z,93.53
2023-06-30T01:20:35.716Z,93.43
2023-06-30T01:21:35.700Z,93.37
2023-06-30T01:22:35.704Z,93.68
2023-06-30T01:23:35.703Z,93.37
2023-06-30T01:24:35.685Z,93.07
2023-06-30T01:25:35.726Z,93.12
2023-06-30T01:26:35.708Z,93.21
2023-06-30T01:27:35.648Z,93.32
2023-06-30T01:28:35.661Z,93.32
2023-06-30T01:29:35.610Z,93.01
2023-06-30T01:30:35.630Z,92.81
2023-06-30T01:31:35.591Z,92.81
2023-06-30T01:32:35.611Z,92.71
2023-06-30T01:33:35.566Z,92.61
2023-06-30T01:34:35.578Z,92.41
2023-06-30T01:35:35.574Z,92.00
2023-06-30T01:36:35.541Z,92.30
2023-06-30T01:37:35.541Z,91.80
2023-06-30T01:38:35.521Z,91.70
2023-06-30T01:39:35.506Z,90.79
2023-06-30T01:40:35.493Z,91.19
2023-06-30T01:41:35.489Z,91.30
2023-06-30T01:42:35.481Z,91.70
2023-06-30T01:43:35.458Z,91.60
2023-06-30T01:44:35.469Z,92.10
2023-06-30T01:45:35.434Z,91.80
2023-06-30T01:46:35.469Z,92.05
2023-06-30T01:47:35.459Z,92.91
2023-06-30T01:48:35.402Z,92.76
2023-06-30T01:49:35.384Z,93.05
2023-06-30T01:50:35.383Z,93.26
2023-06-30T01:51:35.376Z,93.66
2023-06-30T01:52:35.420Z,93.87
2023-06-30T01:53:35.350Z,94.57
2023-06-30T01:54:35.338Z,94.78
2023-06-30T01:55:35.324Z,95.28
2023-06-30T01:56:35.324Z,95.54
2023-06-30T01:57:35.314Z,95.07
2023-06-30T01:58:35.294Z,95.18
2023-06-30T01:59:35.285Z,95.07
2023-06-30T02:00:35.282Z,95.18
2023-06-30T02:01:35.289Z,95.07
2023-06-30T02:02:35.326Z,95.43
2023-06-30T02:03:35.308Z,95.83
2023-06-30T02:04:35.223Z,96.23
2023-06-30T02:05:35.221Z,96.54
2023-06-30T02:06:35.236Z,96.74
2023-06-30T02:07:35.363Z,96.89
2023-06-30T02:08:35.182Z,96.89
2023-06-30T02:09:47.226Z,96.54
2023-06-30T02:10:35.197Z,96.74
2023-06-30T02:11:35.141Z,96.84
2023-06-30T02:12:35.138Z,97.14
2023-06-30T02:13:35.123Z,97.55
2023-06-30T02:14:35.122Z,97.55
2023-06-30T02:15:35.109Z,97.55
2023-06-30T02:16:35.109Z,97.75
2023-06-30T02:17:35.099Z,98.05
2023-06-30T02:18:35.084Z,98.25
2023-06-30T02:19:35.064Z,98.36
2023-06-30T02:20:35.045Z,98.46
2023-06-30T02:21:35.028Z,98.56
2023-06-30T02:22:35.031Z,98.66
2023-06-30T02:23:35.008Z,98.56
2023-06-30T02:24:35.037Z,98.86
2023-06-30T02:25:34.983Z,99.07
2023-06-30T02:26:34.994Z,98.96
2023-06-30T02:27:34.965Z,99.07
2023-06-30T02:28:34.979Z,99.07
2023-06-30T02:29:35.000Z,98.91
2023-06-30T02:30:34.944Z,99.01
2023-06-30T02:31:34.940Z,99.21
2023-06-30T02:32:34.966Z,99.21
2023-06-30T02:33:34.949Z,99.47
2023-06-30T02:34:34.887Z,99.47
2023-06-30T02:35:34.916Z,99.77
2023-06-30T02:36:34.869Z,99.77
2023-06-30T02:37:34.850Z,99.67
2023-06-30T02:38:34.893Z,99.67
2023-06-30T02:39:34.833Z,99.67
2023-06-30T02:40:34.824Z,99.72
2023-06-30T02:41:34.812Z,99.62
2023-06-30T02:42:34.846Z,99.72
2023-06-30T02:43:34.795Z,99.82
2023-06-30T02:44:34.776Z,99.87
2023-06-30T02:45:34.831Z,99.98
2023-06-30T02:46:34.797Z,99.98
2023-06-30T02:47:34.872Z,99.82
2023-06-30T02:48:34.744Z,99.72
2023-06-30T02:49:34.714Z,99.72
2023-06-30T02:50:34.719Z,99.82
2023-06-30T02:51:34.692Z,99.87
2023-06-30T02:52:34.700Z,99.77
2023-06-30T02:53:34.680Z,99.72
2023-06-30T02:54:34.675Z,99.72
2023-06-30T02:55:36.573Z,99.92
2023-06-30T02:56:34.641Z,99.82
2023-06-30T02:57:34.654Z,99.82
2023-06-30T02:58:34.664Z,99.82
2023-06-30T02:59:34.612Z,99.92
2023-06-30T03:00:34.593Z,99.98
2023-06-30T03:01:34.694Z,99.98
2023-06-30T03:02:34.815Z,99.99
2023-06-30T03:03:34.698Z,99.82
2023-06-30T03:04:34.550Z,99.92
2023-06-30T03:05:34.564Z,99.99
2023-06-30T03:06:34.545Z,99.99
2023-06-30T03:07:34.627Z,99.99
2023-06-30T03:08:34.508Z,99.99
2023-06-30T03:09:34.502Z,99.92
2023-06-30T03:10:34.480Z,99.99
2023-06-30T03:11:34.486Z,99.99
2023-06-30T03:12:34.459Z,99.99
2023-06-30T03:13:34.452Z,99.99
2023-06-30T03:14:34.439Z,99.99
2023-06-30T03:15:34.440Z,99.92
2023-06-30T03:16:34.453Z,99.82
2023-06-30T03:17:34.475Z,99.92
2023-06-30T03:18:34.398Z,99.99
2023-06-30T03:19:34.416Z,99.92
2023-06-30T03:20:34.378Z,99.99
2023-06-30T03:21:34.365Z,99.99
2023-06-30T03:22:34.344Z,99.82
2023-06-30T03:23:34.347Z,99.72
2023-06-30T03:24:34.326Z,99.72
2023-06-30T03:25:34.332Z,99.05
2023-06-30T03:26:34.307Z,99.16
2023-06-30T03:27:34.295Z,99.05
2023-06-30T03:28:34.281Z,99.16
2023-06-30T03:29:34.284Z,99.36
2023-06-30T03:30:34.331Z,99.05
2023-06-30T03:31:34.270Z,99.16
2023-06-30T03:32:34.256Z,99.26
2023-06-30T03:33:34.234Z,99.26
2023-06-30T03:34:34.241Z,99.16
2023-06-30T03:35:34.205Z,99.26
2023-06-30T03:36:34.191Z,99.26
2023-06-30T03:37:34.185Z,99.36
2023-06-30T03:38:34.165Z,99.56
2023-06-30T03:39:34.177Z,99.56
2023-06-30T03:40:34.179Z,99.66
2023-06-30T03:41:34.148Z,99.92
2023-06-30T03:42:34.149Z,99.92
2023-06-30T03:43:34.164Z,99.92
2023-06-30T03:44:34.131Z,99.92
2023-06-30T03:45:34.094Z,99.82
2023-06-30T03:46:34.127Z,99.66
2023-06-30T03:47:34.106Z,99.82
2023-06-30T03:48:34.068Z,99.72
2023-06-30T03:49:34.084Z,99.82
2023-06-30T03:50:34.039Z,99.92
2023-06-30T03:51:34.045Z,99.92
2023-06-30T03:52:34.029Z,99.87
2023-06-30T03:53:34.066Z,99.56
2023-06-30T03:54:34.001Z,99.56
2023-06-30T03:55:33.987Z,99.56
2023-06-30T03:56:33.974Z,99.66
2023-06-30T03:57:33.972Z,99.66
2023-06-30T03:58:33.962Z,99.56
2023-06-30T03:59:33.940Z,99.56
2023-06-30T04:00:33.928Z,99.56
2023-06-30T04:01:33.919Z,99.52
2023-06-30T04:02:33.941Z,99.52
2023-06-30T04:03:33.994Z,99.26
2023-06-30T04:04:33.997Z,99.26
2023-06-30T04:05:33.882Z,99.26
2023-06-30T04:06:33.858Z,99.46
2023-06-30T04:07:34.031Z,99.36
2023-06-30T04:08:33.998Z,99.26
2023-06-30T04:09:33.836Z,99.16
2023-06-30T04:10:33.828Z,99.16
2023-06-30T04:11:33.828Z,99.16
2023-06-30T04:12:33.813Z,99.36
2023-06-30T04:13:33.842Z,99.16
2023-06-30T04:14:33.773Z,99.16
2023-06-30T04:15:33.760Z,99.26
2023-06-30T04:16:33.796Z,99.16
2023-06-30T04:17:33.776Z,98.96
2023-06-30T04:18:33.746Z,98.35
2023-06-30T04:19:33.729Z,98.35
2023-06-30T04:20:33.737Z,98.55
2023-06-30T04:21:33.699Z,98.65
2023-06-30T04:22:33.693Z,98.75
2023-06-30T04:23:33.676Z,98.65
2023-06-30T04:24:33.720Z,98.25
2023-06-30T04:25:33.656Z,98.35
2023-06-30T04:26:33.648Z,98.35
2023-06-30T04:27:33.645Z,98.05
2023-06-30T04:28:33.616Z,97.58
2023-06-30T04:29:33.618Z,97.58
2023-06-30T04:30:33.628Z,97.79
2023-06-30T04:31:33.603Z,97.85
2023-06-30T04:32:33.605Z,97.64
2023-06-30T04:33:33.565Z,97.85
2023-06-30T04:34:33.551Z,98.14
2023-06-30T04:35:33.610Z,98.05
2023-06-30T04:36:33.556Z,98.05
2023-06-30T04:37:33.537Z,98.05
2023-06-30T04:38:33.586Z,98.35
2023-06-30T04:39:33.527Z,98.25
2023-06-30T04:40:33.486Z,98.55
2023-06-30T04:41:33.498Z,98.35
2023-06-30T04:42:33.460Z,98.45
2023-06-30T04:43:33.461Z,98.35
2023-06-30T04:44:33.442Z,98.35
2023-06-30T04:45:33.441Z,98.14
2023-06-30T04:46:33.495Z,98.14
2023-06-30T04:47:33.494Z,98.25
2023-06-30T04:48:33.401Z,98.14
2023-06-30T04:49:33.391Z,98.05
2023-06-30T04:50:33.379Z,97.94
2023-06-30T04:51:33.377Z,97.85
2023-06-30T04:52:33.361Z,97.74
2023-06-30T04:53:33.357Z,97.74
2023-06-30T04:54:33.329Z,97.85
2023-06-30T04:55:33.334Z,97.64
2023-06-30T04:56:33.323Z,97.24
2023-06-30T04:57:33.306Z,97.14
2023-06-30T04:58:33.300Z,97.49
2023-06-30T04:59:33.375Z,97.49
2023-06-30T05:00:33.442Z,96.93
2023-06-30T05:01:33.310Z,96.83
2023-06-30T05:02:33.284Z,96.63
2023-06-30T05:03:33.293Z,97.03
2023-06-30T05:04:33.246Z,97.44
2023-06-30T05:05:33.223Z,97.69
2023-06-30T05:06:33.198Z,97.90
2023-06-30T05:07:33.242Z,98.00
2023-06-30T05:08:33.174Z,98.00
2023-06-30T05:09:33.181Z,98.00
2023-06-30T05:10:33.162Z,98.20
2023-06-30T05:11:33.146Z,98.30
2023-06-30T05:12:33.137Z,98.40
2023-06-30T05:13:33.136Z,98.40
2023-06-30T05:14:33.242Z,98.61
2023-06-30T05:15:33.105Z,98.71
2023-06-30T05:16:34.865Z,98.71
2023-06-30T05:17:33.227Z,98.61
2023-06-30T05:18:33.084Z,98.61
2023-06-30T05:19:33.066Z,98.50
2023-06-30T05:20:33.041Z,98.10
2023-06-30T05:21:33.033Z,98.40
2023-06-30T05:22:33.021Z,98.40
2023-06-30T05:23:33.021Z,98.36
2023-06-30T05:24:33.006Z,98.30
2023-06-30T05:25:32.991Z,98.25
2023-06-30T05:26:32.974Z,98.25
2023-06-30T05:27:32.970Z,97.90
2023-06-30T05:28:32.965Z,97.90
2023-06-30T05:29:33.007Z,97.85
2023-06-30T05:30:32.943Z,98.05
2023-06-30T05:31:33.123Z,97.34
2023-06-30T05:32:32.979Z,96.84
2023-06-30T05:33:32.913Z,96.23
2023-06-30T05:34:32.884Z,96.13
2023-06-30T05:35:32.871Z,96.23
2023-06-30T05:36:34.957Z,96.09
2023-06-30T05:37:32.870Z,96.19
2023-06-30T05:38:32.856Z,95.98
2023-06-30T05:39:32.849Z,95.78
2023-06-30T05:40:32.825Z,95.89
2023-06-30T05:41:32.811Z,95.98
2023-06-30T05:42:32.818Z,95.89
2023-06-30T05:43:32.783Z,95.28
2023-06-30T05:44:32.888Z,95.28
2023-06-30T05:45:32.764Z,95.07
2023-06-30T05:46:32.799Z,94.98
2023-06-30T05:47:32.769Z,94.78
2023-06-30T05:48:32.733Z,94.57
2023-06-30T05:49:32.714Z,94.93
2023-06-30T05:50:32.712Z,94.63
2023-06-30T05:51:32.708Z,93.66
2023-06-30T05:52:32.696Z,93.87
2023-06-30T05:53:32.670Z,94.02
2023-06-30T05:54:32.663Z,93.05
2023-06-30T05:55:32.646Z,93.32
2023-06-30T05:56:32.672Z,92.96
2023-06-30T05:57:32.638Z,93.66
2023-06-30T05:58:32.620Z,94.12
2023-06-30T05:59:32.616Z,93.82
2023-06-30T06:00:32.612Z,93.72
2023-06-30T06:01:32.593Z,93.21
2023-06-30T06:02:32.650Z,91.74
2023-06-30T06:03:32.732Z,91.94
2023-06-30T06:04:32.693Z,92.85
2023-06-30T06:05:32.729Z,93.21
2023-06-30T06:06:32.544Z,92.50
2023-06-30T06:07:32.545Z,92.30
2023-06-30T06:08:32.498Z,91.44
2023-06-30T06:09:32.508Z,91.64
2023-06-30T06:10:32.537Z,92.00
2023-06-30T06:11:32.481Z,92.00
2023-06-30T06:12:32.461Z,91.80
2023-06-30T06:13:32.551Z,92.00
2023-06-30T06:14:32.438Z,90.79
2023-06-30T06:15:32.478Z,90.73
2023-06-30T06:16:32.461Z,90.83
2023-06-30T06:17:32.437Z,90.53
2023-06-30T06:18:32.393Z,90.83
2023-06-30T06:19:32.402Z,90.94
2023-06-30T06:20:32.377Z,91.85
2023-06-30T06:21:32.371Z,91.03
2023-06-30T06:22:32.370Z,91.80
2023-06-30T06:23:32.354Z,92.21
2023-06-30T06:24:32.335Z,89.98
2023-06-30T06:25:32.334Z,88.87
2023-06-30T06:26:32.305Z,89.28
2023-06-30T06:27:32.301Z,89.64
2023-06-30T06:28:32.285Z,89.94
2023-06-30T06:29:32.305Z,89.43
2023-06-30T06:30:32.304Z,87.41
2023-06-30T06:31:32.272Z,87.62
2023-06-30T06:32:32.317Z,87.82
2023-06-30T06:33:32.236Z,86.61
2023-06-30T06:34:32.220Z,85.80
2023-06-30T06:35:32.205Z,86.61
2023-06-30T06:36:32.198Z,86.61
2023-06-30T06:37:32.198Z,87.01
2023-06-30T06:38:32.192Z,86.36
2023-06-30T06:39:32.164Z,84.65
2023-06-30T06:40:32.148Z,87.03
2023-06-30T06:41:32.138Z,83.91
2023-06-30T06:42:32.138Z,83.30
2023-06-30T06:43:32.153Z,84.01
2023-06-30T06:44:32.103Z,85.68
2023-06-30T06:45:32.100Z,83.97
2023-06-30T06:46:32.129Z,85.03
2023-06-30T06:47:32.104Z,85.00
2023-06-30T06:48:32.110Z,82.98
2023-06-30T06:49:32.045Z,81.51
2023-06-30T06:50:32.066Z,82.11
2023-06-30T06:51:32.032Z,83.22
2023-06-30T06:52:32.023Z,79.93
2023-06-30T06:53:32.017Z,82.76
2023-06-30T06:54:31.989Z,81.95
2023-06-30T06:55:31.986Z,80.84
2023-06-30T06:56:31.976Z,81.30
2023-06-30T06:57:31.981Z,78.99
2023-06-30T06:58:31.959Z,79.83
2023-06-30T06:59:31.940Z,78.96
2023-06-30T07:00:31.921Z,83.46
2023-06-30T07:01:31.929Z,80.04
2023-06-30T07:02:32.036Z,80.54
2023-06-30T07:03:31.942Z,80.24
2023-06-30T07:04:31.879Z,79.06
2023-06-30T07:05:31.872Z,77.62
2023-06-30T07:06:31.865Z,78.63
2023-06-30T07:07:33.698Z,78.42
2023-06-30T07:08:31.832Z,79.03
2023-06-30T07:09:31.834Z,78.49
2023-06-30T07:10:31.808Z,80.57
2023-06-30T07:11:31.813Z,76.27
2023-06-30T07:12:31.802Z,78.59
2023-06-30T07:13:31.780Z,77.84
2023-06-30T07:14:31.772Z,79.46
2023-06-30T07:15:31.756Z,80.12
2023-06-30T07:16:31.784Z,76.43
2023-06-30T07:17:31.802Z,76.64
2023-06-30T07:18:31.828Z,76.27
2023-06-30T07:19:31.709Z,77.28
2023-06-30T07:20:31.733Z,77.72
2023-06-30T07:21:31.702Z,77.92
2023-06-30T07:22:31.674Z,77.92
2023-06-30T07:23:31.674Z,78.63
2023-06-30T07:24:42.025Z,77.21
2023-06-30T07:25:31.658Z,77.11
2023-06-30T07:26:31.638Z,77.21
2023-06-30T07:27:31.627Z,77.42
2023-06-30T07:28:31.606Z,76.75
2023-06-30T07:29:31.617Z,78.52
2023-06-30T07:30:31.597Z,78.69
2023-06-30T07:31:31.614Z,77.08
2023-06-30T07:32:31.598Z,77.75
2023-06-30T07:33:31.587Z,77.91
2023-06-30T07:34:31.555Z,74.93
2023-06-30T07:35:31.542Z,77.00
2023-06-30T07:36:31.515Z,76.36
2023-06-30T07:37:31.507Z,73.48
2023-06-30T07:38:31.516Z,74.08
2023-06-30T07:39:31.496Z,73.28
2023-06-30T07:40:41.683Z,75.79
2023-06-30T07:41:31.508Z,73.75
2023-06-30T07:42:31.449Z,73.35
2023-06-30T07:43:31.456Z,74.92
2023-06-30T07:44:31.436Z,72.20
2023-06-30T07:45:31.444Z,74.82
2023-06-30T07:46:31.449Z,76.07
2023-06-30T07:47:31.437Z,75.16
2023-06-30T07:48:31.469Z,77.08
2023-06-30T07:49:31.390Z,75.09
2023-06-30T07:50:31.361Z,74.25
2023-06-30T07:51:31.355Z,72.81
2023-06-30T07:52:31.336Z,73.07
2023-06-30T07:53:31.352Z,71.87
2023-06-30T07:54:31.325Z,68.85
2023-06-30T07:55:31.314Z,68.15
2023-06-30T07:56:31.293Z,69.96
2023-06-30T07:57:31.299Z,67.27
2023-06-30T07:58:31.293Z,69.45
2023-06-30T07:59:31.281Z,70.16
2023-06-30T08:00:31.245Z,70.46
2023-06-30T08:01:31.247Z,69.45
2023-06-30T08:02:31.355Z,69.82
2023-06-30T08:03:31.668Z,70.29
2023-06-30T08:04:31.346Z,66.75
2023-06-30T08:05:31.381Z,64.84
2023-06-30T08:06:31.200Z,66.67
2023-06-30T08:07:49.577Z,65.41
2023-06-30T08:08:31.175Z,66.88
2023-06-30T08:09:31.151Z,66.61
2023-06-30T08:10:31.149Z,64.18
2023-06-30T08:11:31.167Z,63.31
2023-06-30T08:12:31.128Z,63.73
2023-06-30T08:13:31.103Z,64.84
2023-06-30T08:14:31.092Z,64.64
2023-06-30T08:15:31.094Z,67.15
2023-06-30T08:16:31.098Z,62.74
2023-06-30T08:17:48.970Z,62.01
2023-06-30T08:18:34.521Z,61.72
2023-06-30T08:19:48.180Z,66.05
2023-06-30T08:20:31.125Z,63.03
2023-06-30T08:21:31.063Z,65.94
2023-06-30T08:22:31.013Z,64.18
2023-06-30T08:23:31.030Z,62.04
2023-06-30T08:24:30.978Z,64.12
2023-06-30T08:25:30.988Z,61.98
2023-06-30T08:26:30.969Z,61.14
2023-06-30T08:27:30.948Z,63.04
2023-06-30T08:28:30.944Z,62.81
2023-06-30T08:29:30.931Z,61.75
2023-06-30T08:30:30.915Z,62.51
2023-06-30T08:31:30.953Z,61.48
2023-06-30T08:32:30.902Z,62.68
2023-06-30T08:34:30.874Z,63.95
2023-06-30T08:35:30.877Z,65.98
2023-06-30T08:36:30.854Z,66.64
2023-06-30T08:37:30.838Z,67.14
2023-06-30T08:38:30.825Z,66.35
2023-06-30T08:39:30.820Z,63.89
2023-06-30T08:40:30.872Z,64.45
2023-06-30T08:41:30.792Z,63.85
2023-06-30T08:42:30.778Z,61.91
2023-06-30T08:43:30.777Z,62.10
2023-06-30T08:44:30.757Z,65.94
2023-06-30T08:45:30.767Z,65.97
2023-06-30T08:46:30.743Z,64.60
2023-06-30T08:47:30.810Z,66.03
2023-06-30T08:48:30.763Z,65.91
2023-06-30T08:49:30.704Z,67.01
2023-06-30T08:50:30.708Z,62.98
2023-06-30T08:51:30.685Z,59.36
2023-06-30T08:52:30.678Z,58.44
2023-06-30T08:53:30.728Z,62.19
2023-06-30T08:54:30.659Z,61.22
2023-06-30T08:55:30.664Z,59.74
2023-06-30T08:56:30.624Z,57.15
2023-06-30T08:57:31.569Z,57.20
2023-06-30T08:58:30.608Z,56.68
2023-06-30T08:59:30.607Z,54.31
2023-06-30T09:00:30.608Z,54.16
2023-06-30T09:01:30.660Z,51.32
2023-06-30T09:02:30.793Z,49.44
2023-06-30T09:03:30.590Z,49.71
2023-06-30T09:04:30.566Z,50.90
2023-06-30T09:05:30.525Z,50.90
2023-06-30T09:06:30.528Z,50.60
2023-06-30T09:07:30.544Z,50.38
2023-06-30T09:08:30.499Z,48.47
2023-06-30T09:09:30.615Z,49.86
2023-06-30T09:10:30.520Z,50.31
2023-06-30T09:11:30.456Z,53.33
2023-06-30T09:12:30.466Z,51.75
2023-06-30T09:13:30.452Z,55.01
2023-06-30T09:14:30.442Z,54.94
2023-06-30T09:15:30.555Z,59.62
2023-06-30T09:16:30.466Z,60.65
2023-06-30T09:17:30.447Z,60.78
2023-06-30T09:18:30.412Z,60.51
2023-06-30T09:19:30.443Z,60.94
2023-06-30T09:20:30.431Z,60.80
2023-06-30T09:21:30.444Z,61.80
2023-06-30T09:22:53.585Z,64.61
2023-06-30T09:23:30.445Z,61.97
2023-06-30T09:24:30.325Z,60.39
2023-06-30T09:25:30.327Z,61.50
2023-06-30T09:26:32.456Z,61.47
2023-06-30T09:27:30.310Z,62.84
2023-06-30T09:28:30.304Z,61.74
2023-06-30T09:29:30.260Z,62.51
2023-06-30T09:30:30.250Z,62.18
2023-06-30T09:31:30.289Z,61.88
2023-06-30T09:32:30.321Z,61.21
2023-06-30T09:33:30.216Z,61.44
2023-06-30T09:34:30.217Z,62.24
2023-06-30T09:35:30.219Z,61.27
2023-06-30T09:36:30.196Z,61.27
2023-06-30T09:37:30.181Z,62.10
2023-06-30T09:38:30.166Z,62.53
2023-06-30T09:39:30.161Z,63.64
2023-06-30T09:40:30.159Z,63.33
2023-06-30T09:41:30.142Z,64.81
2023-06-30T09:42:30.131Z,63.78
2023-06-30T09:43:30.112Z,63.24
2023-06-30T09:44:30.103Z,63.84
2023-06-30T09:45:30.081Z,62.31
2023-06-30T09:46:30.129Z,62.81
2023-06-30T09:47:30.108Z,61.68
2023-06-30T09:48:30.060Z,59.48
2023-06-30T09:49:30.074Z,58.61
2023-06-30T09:50:30.029Z,59.33
2023-06-30T09:51:30.034Z,60.14
2023-06-30T09:52:30.003Z,57.63
2023-06-30T09:53:29.997Z,56.26
2023-06-30T09:55:29.984Z,59.79
2023-06-30T09:56:29.971Z,60.77
2023-06-30T09:57:29.957Z,61.84
2023-06-30T09:58:29.944Z,58.43
2023-06-30T09:59:29.943Z,59.33
2023-06-30T10:00:55.041Z,59.44
2023-06-30T10:01:29.951Z,59.23
2023-06-30T10:02:29.964Z,59.03
2023-06-30T10:03:30.017Z,59.64
2023-06-30T10:04:29.882Z,59.23
2023-06-30T10:05:29.873Z,60.97
2023-06-30T10:06:29.859Z,60.77
2023-06-30T10:07:29.856Z,59.64
2023-06-30T10:08:29.824Z,59.74
2023-06-30T10:09:29.828Z,62.11
2023-06-30T10:10:29.918Z,61.01
2023-06-30T10:11:29.811Z,61.68
2023-06-30T10:12:29.803Z,59.18
2023-06-30T10:13:29.770Z,59.45
2023-06-30T10:14:29.780Z,59.65
2023-06-30T10:15:29.760Z,59.08
2023-06-30T10:16:29.737Z,59.18
2023-06-30T10:17:29.836Z,59.64
2023-06-30T10:18:29.768Z,61.04
2023-06-30T10:19:29.717Z,61.34
2023-06-30T10:20:42.557Z,61.24
2023-06-30T10:21:29.687Z,60.51
2023-06-30T10:22:29.664Z,60.51
2023-06-30T10:23:29.665Z,61.71
2023-06-30T10:24:29.663Z,59.91
2023-06-30T10:25:29.636Z,57.87
2023-06-30T10:26:29.631Z,59.18
2023-06-30T10:27:29.616Z,59.78
2023-06-30T10:28:29.614Z,59.28
2023-06-30T10:29:29.611Z,59.98
2023-06-30T10:30:29.588Z,59.88
2023-06-30T10:31:29.572Z,58.58
2023-06-30T10:32:29.631Z,59.78
2023-06-30T10:33:29.679Z,59.68
2023-06-30T10:34:29.542Z,57.98
2023-06-30T10:35:29.536Z,58.07
2023-06-30T10:36:29.510Z,59.18
2023-06-30T10:37:29.535Z,61.25
2023-06-30T10:38:29.506Z,58.85
2023-06-30T10:39:29.488Z,59.65
2023-06-30T10:40:29.479Z,58.95
2023-06-30T10:41:29.461Z,59.25
2023-06-30T10:42:29.446Z,58.95
2023-06-30T10:43:29.446Z,58.95
2023-06-30T10:44:29.439Z,58.45
2023-06-30T10:45:29.427Z,57.95
2023-06-30T10:46:29.422Z,59.08
2023-06-30T10:47:29.443Z,59.65
2023-06-30T10:48:29.394Z,57.17
2023-06-30T10:49:29.373Z,56.98
2023-06-30T10:50:29.364Z,58.28
2023-06-30T10:51:29.354Z,57.75
2023-06-30T10:52:29.363Z,58.75
2023-06-30T10:53:29.326Z,58.52
2023-06-30T10:54:29.375Z,58.22
2023-06-30T10:55:29.315Z,57.02
2023-06-30T10:56:29.293Z,57.42
2023-06-30T10:57:29.298Z,58.82
2023-06-30T10:58:29.271Z,57.82
2023-06-30T10:59:29.266Z,58.12
2023-06-30T11:00:29.256Z,57.39
2023-06-30T11:01:29.256Z,58.49
2023-06-30T11:02:29.326Z,58.86
2023-06-30T11:03:29.303Z,56.16
2023-06-30T11:04:29.430Z,58.14
2023-06-30T11:05:29.212Z,58.94
2023-06-30T11:06:29.244Z,56.01
2023-06-30T11:07:29.200Z,55.62
2023-06-30T11:08:29.171Z,56.51
2023-06-30T11:09:29.160Z,54.77
2023-06-30T11:10:29.140Z,57.97
2023-06-30T11:11:29.152Z,56.44
2023-06-30T11:12:29.116Z,56.87
2023-06-30T11:13:29.107Z,57.04
2023-06-30T11:14:29.123Z,55.54
2023-06-30T11:15:29.094Z,56.67
2023-06-30T11:16:29.081Z,56.20
2023-06-30T11:17:29.118Z,57.62
2023-06-30T11:18:29.102Z,56.17
2023-06-30T11:19:29.086Z,56.77
2023-06-30T11:20:29.046Z,53.97
2023-06-30T11:21:29.047Z,54.85
2023-06-30T11:22:29.002Z,54.82
2023-06-30T11:23:29.070Z,54.42
2023-06-30T11:24:28.979Z,55.32
2023-06-30T11:25:28.985Z,54.85
2023-06-30T11:26:28.957Z,53.44
2023-06-30T11:27:28.963Z,53.94
2023-06-30T11:28:28.944Z,55.67
2023-06-30T11:29:28.953Z,56.77
2023-06-30T11:30:28.926Z,56.87
2023-06-30T11:31:29.009Z,57.57
2023-06-30T11:32:28.979Z,57.57
2023-06-30T11:33:28.888Z,58.28
2023-06-30T11:34:28.881Z,57.75
2023-06-30T11:35:28.881Z,58.45
2023-06-30T11:36:28.847Z,58.02
2023-06-30T11:37:28.880Z,56.92
2023-06-30T11:38:28.896Z,56.52
2023-06-30T11:39:28.831Z,55.02
2023-06-30T11:40:28.805Z,56.29
2023-06-30T11:41:28.801Z,54.49
2023-06-30T11:42:28.787Z,55.99
2023-06-30T11:43:28.791Z,55.09
2023-06-30T11:44:28.779Z,54.19
2023-06-30T11:45:29.000Z,52.89
2023-06-30T11:46:28.773Z,54.29
2023-06-30T11:47:28.734Z,54.69
2023-06-30T11:48:28.732Z,55.29
2023-06-30T11:49:28.725Z,54.49
2023-06-30T11:50:28.704Z,55.27
2023-06-30T11:51:28.733Z,56.77
2023-06-30T11:52:28.677Z,55.64
2023-06-30T11:53:28.680Z,54.54
2023-06-30T11:54:28.666Z,55.14
2023-06-30T11:55:28.661Z,53.92
2023-06-30T11:56:28.628Z,53.44
2023-06-30T11:57:28.626Z,52.25
2023-06-30T11:58:28.623Z,53.34
2023-06-30T11:59:28.611Z,51.67
2023-06-30T12:00:28.590Z,53.69
2023-06-30T12:01:28.593Z,53.32
2023-06-30T12:02:28.593Z,55.62
2023-06-30T12:03:28.609Z,54.10
2023-06-30T12:04:28.590Z,54.90
2023-06-30T12:05:28.598Z,53.57
2023-06-30T12:06:28.535Z,53.47
2023-06-30T12:07:28.549Z,55.14
2023-06-30T12:08:28.511Z,54.61
2023-06-30T12:09:28.489Z,54.11
2023-06-30T12:10:28.486Z,54.61
2023-06-30T12:11:28.471Z,54.41
2023-06-30T12:12:28.469Z,55.21
2023-06-30T12:13:28.441Z,53.02
2023-06-30T12:14:28.766Z,53.31
2023-06-30T12:15:28.432Z,53.04
2023-06-30T12:16:28.466Z,53.77
2023-06-30T12:17:28.498Z,54.97
2023-06-30T12:18:28.395Z,53.87
2023-06-30T12:19:28.378Z,54.27
2023-06-30T12:20:28.380Z,53.67
2023-06-30T12:21:28.374Z,53.59
2023-06-30T12:22:29.276Z,54.10
2023-06-30T12:23:28.350Z,55.69
2023-06-30T12:24:28.332Z,54.49
2023-06-30T12:25:28.317Z,53.67
2023-06-30T12:26:28.320Z,53.57
2023-06-30T12:27:28.304Z,52.34
2023-06-30T12:28:28.278Z,52.34
2023-06-30T12:29:28.616Z,52.12
2023-06-30T12:30:28.276Z,50.52
2023-06-30T12:31:28.298Z,52.92
2023-06-30T12:32:28.272Z,52.62
2023-06-30T12:33:28.222Z,51.92
2023-06-30T12:34:28.217Z,52.82
2023-06-30T12:35:28.205Z,52.42
2023-06-30T12:36:28.196Z,52.22
2023-06-30T12:37:28.176Z,52.02
2023-06-30T12:38:28.177Z,52.14
2023-06-30T12:39:28.186Z,52.55
2023-06-30T12:40:28.828Z,53.04
2023-06-30T12:41:28.132Z,53.12
2023-06-30T12:42:28.129Z,53.31
2023-06-30T12:43:28.107Z,52.32
2023-06-30T12:44:28.109Z,52.19
2023-06-30T12:45:28.122Z,53.02
2023-06-30T12:46:28.096Z,53.42
2023-06-30T12:47:28.097Z,53.69
2023-06-30T12:48:28.056Z,54.29
2023-06-30T12:49:28.046Z,52.69
2023-06-30T12:50:28.043Z,52.62
2023-06-30T12:51:28.045Z,53.22
2023-06-30T12:52:28.010Z,53.31
2023-06-30T12:53:28.006Z,52.39
2023-06-30T12:54:28.016Z,52.02